Time,TemperatureF,DewpointF,PressureIn,WindDirection,WindDirectionDegrees,WindSpeedMPH,WindSpeedGustMPH,Humidity,HourlyPrecipIn,Conditions,Clouds,dailyrainin,SolarRadiationWatts/m^2,SoftwareType,DateUTC
2013-09-25 02:53:00,51.0,20.0,-100.00,SW,216,14.0,33.0,29,0.00,,,0.00,0.000000,,2013-09-25 08:53:00,
2013-09-25 03:02:00,51.0,20.0,-100.00,SW,216,14.0,33.0,29,0.00,,,0.00,0.000000,,2013-09-25 09:02:00,
2013-09-25 03:11:00,51.0,20.0,-100.00,SW,216,14.0,33.0,29,0.00,,,0.00,0.000000,,2013-09-25 09:11:00,
2013-09-25 03:22:00,51.0,20.0,-100.00,SW,216,14.0,33.0,29,0.00,,,0.00,0.000000,,2013-09-25 09:22:00,
2013-09-25 03:33:00,51.0,20.0,-100.00,SW,216,14.0,33.0,29,0.00,,,0.00,0.000000,,2013-09-25 09:33:00,
2013-09-25 03:54:00,51.0,20.0,-100.00,SW,217,14.0,30.0,29,0.00,,,0.00,0.000000,,2013-09-25 09:54:00,
2013-09-25 04:04:00,51.0,20.0,-100.00,SW,217,14.0,30.0,29,0.00,,,0.00,0.000000,,2013-09-25 10:04:00,
2013-09-25 04:12:00,51.0,20.0,-100.00,SW,217,14.0,30.0,29,0.00,,,0.00,0.000000,,2013-09-25 10:12:00,
2013-09-25 04:23:00,51.0,20.0,-100.00,SW,217,14.0,30.0,29,0.00,,,0.00,0.000000,,2013-09-25 10:23:00,
2013-09-25 04:32:00,51.0,20.0,-100.00,SW,217,14.0,30.0,29,0.00,,,0.00,0.000000,,2013-09-25 10:32:00,
2013-09-25 08:52:00,52.0,21.0,-100.00,SW,219,15.0,32.0,29,0.00,,,0.00,44.000000,,2013-09-25 14:52:00,
2013-09-25 09:02:00,52.0,21.0,-100.00,SW,219,15.0,32.0,29,0.00,,,0.00,44.000000,,2013-09-25 15:02:00,
2013-09-25 09:11:00,52.0,21.0,-100.00,SW,219,15.0,32.0,29,0.00,,,0.00,44.000000,,2013-09-25 15:11:00,
2013-09-25 10:34:00,54.0,20.0,-100.00,SSW,207,15.0,35.0,26,0.00,,,0.00,605.000000,,2013-09-25 16:34:00,
2013-09-25 10:53:00,54.0,20.0,-100.00,SSW,207,15.0,35.0,26,0.00,,,0.00,605.000000,,2013-09-25 16:53:00,
2013-09-25 11:03:00,54.0,20.0,-100.00,SSW,207,15.0,35.0,26,0.00,,,0.00,605.000000,,2013-09-25 17:03:00,
2013-09-25 11:13:00,54.0,20.0,-100.00,SSW,207,15.0,35.0,26,0.00,,,0.00,605.000000,,2013-09-25 17:13:00,
2013-09-25 11:23:00,54.0,20.0,-100.00,SSW,207,15.0,35.0,26,0.00,,,0.00,605.000000,,2013-09-25 17:23:00,
2013-09-25 11:52:00,55.0,24.0,-100.00,SSW,201,16.0,33.0,30,0.00,,,0.00,746.000000,,2013-09-25 17:52:00,
2013-09-25 12:02:00,55.0,24.0,-100.00,SSW,201,16.0,33.0,30,0.00,,,0.00,746.000000,,2013-09-25 18:02:00,
2013-09-25 12:13:00,55.0,24.0,-100.00,SSW,201,16.0,33.0,30,0.00,,,0.00,746.000000,,2013-09-25 18:13:00,
2013-09-25 12:22:00,55.0,24.0,-100.00,SSW,201,16.0,33.0,30,0.00,,,0.00,746.000000,,2013-09-25 18:22:00,
2013-09-25 12:32:00,55.0,24.0,-100.00,SSW,201,16.0,33.0,30,0.00,,,0.00,746.000000,,2013-09-25 18:32:00,
2013-09-25 13:11:00,55.0,27.0,-100.00,SSW,207,18.0,42.0,34,0.00,,,0.00,830.000000,,2013-09-25 19:11:00,
2013-09-25 13:22:00,55.0,27.0,-100.00,SSW,207,18.0,42.0,34,0.00,,,0.00,830.000000,,2013-09-25 19:22:00,
2013-09-25 13:32:00,55.0,27.0,-100.00,SSW,207,18.0,42.0,34,0.00,,,0.00,830.000000,,2013-09-25 19:32:00,
2013-09-25 13:53:00,58.0,26.0,-100.00,SSW,202,15.0,32.0,29,-99.99,,,0.00,853.000000,,2013-09-25 19:53:00,
2013-09-25 14:03:00,58.0,26.0,-100.00,SSW,202,15.0,32.0,29,-99.99,,,0.00,853.000000,,2013-09-25 20:03:00,
2013-09-25 14:12:00,58.0,26.0,-100.00,SSW,202,15.0,32.0,29,-99.99,,,0.00,853.000000,,2013-09-25 20:12:00,
2013-09-25 14:22:00,58.0,26.0,-100.00,SSW,202,15.0,32.0,29,-99.99,,,0.00,853.000000,,2013-09-25 20:22:00,
2013-09-25 14:32:00,58.0,26.0,-100.00,SSW,202,15.0,32.0,29,-99.99,,,0.00,853.000000,,2013-09-25 20:32:00,
2013-09-25 15:55:00,63.0,27.0,-100.00,SSW,193,12.0,37.0,25,-99.99,,,0.00,686.000000,,2013-09-25 21:55:00,
2013-09-25 16:04:00,63.0,27.0,-100.00,SSW,193,12.0,37.0,25,-99.99,,,0.00,686.000000,,2013-09-25 22:04:00,
2013-09-25 16:14:00,63.0,27.0,-100.00,SSW,193,12.0,37.0,25,-99.99,,,0.00,686.000000,,2013-09-25 22:14:00,
2013-09-25 16:23:00,63.0,27.0,-100.00,SSW,193,12.0,37.0,25,-99.99,,,0.00,686.000000,,2013-09-25 22:23:00,
2013-09-25 16:33:00,63.0,27.0,-100.00,SSW,193,12.0,37.0,25,-99.99,,,0.00,686.000000,,2013-09-25 22:33:00,
2013-09-25 16:34:00,63.0,25.0,-100.00,South,182,13.0,30.0,23,0.00,,,0.00,549.000000,,2013-09-25 22:34:00,
2013-09-25 16:53:00,63.0,25.0,-100.00,South,182,13.0,30.0,23,0.00,,,0.00,549.000000,,2013-09-25 22:53:00,
2013-09-25 17:03:00,63.0,25.0,-100.00,South,182,13.0,30.0,23,0.00,,,0.00,549.000000,,2013-09-25 23:03:00,
2013-09-25 17:12:00,63.0,25.0,-100.00,South,182,13.0,30.0,23,0.00,,,0.00,549.000000,,2013-09-25 23:12:00,
2013-09-25 17:22:00,63.0,25.0,-100.00,South,182,13.0,30.0,23,0.00,,,0.00,549.000000,,2013-09-25 23:22:00,
2013-09-25 17:53:00,62.0,26.0,-100.00,South,185,14.0,26.0,25,0.00,,,0.00,353.000000,,2013-09-25 23:53:00,
2013-09-25 18:02:00,62.0,26.0,-100.00,South,185,14.0,26.0,25,0.00,,,0.00,353.000000,,2013-09-26 00:02:00,
2013-09-25 18:12:00,62.0,26.0,-100.00,South,185,14.0,26.0,25,0.00,,,0.00,353.000000,,2013-09-26 00:12:00,
2013-09-25 18:22:00,62.0,26.0,-100.00,South,185,14.0,26.0,25,0.00,,,0.00,353.000000,,2013-09-26 00:22:00,
2013-09-25 18:32:00,62.0,26.0,-100.00,South,185,14.0,26.0,25,0.00,,,0.00,353.000000,,2013-09-26 00:32:00,
2013-09-25 18:52:00,58.0,25.0,-100.00,SSW,200,13.0,23.0,28,0.00,,,0.00,134.000000,,2013-09-26 00:52:00,
2013-09-25 19:02:00,58.0,25.0,-100.00,SSW,200,13.0,23.0,28,0.00,,,0.00,134.000000,,2013-09-26 01:02:00,
2013-09-25 19:12:00,58.0,25.0,-100.00,SSW,200,13.0,23.0,28,0.00,,,0.00,134.000000,,2013-09-26 01:12:00,
2013-09-25 19:22:00,58.0,25.0,-100.00,SSW,200,13.0,23.0,28,0.00,,,0.00,134.000000,,2013-09-26 01:22:00,
2013-09-25 19:32:00,58.0,25.0,-100.00,SSW,200,13.0,23.0,28,0.00,,,0.00,134.000000,,2013-09-26 01:32:00,
2013-09-25 19:52:00,57.0,25.0,-100.00,South,179,15.0,29.0,29,0.00,,,0.00,4.000000,,2013-09-26 01:52:00,
2013-09-25 20:02:00,57.0,25.0,-100.00,South,179,15.0,29.0,29,0.00,,,0.00,4.000000,,2013-09-26 02:02:00,
2013-09-25 20:12:00,57.0,25.0,-100.00,South,179,15.0,29.0,29,0.00,,,0.00,4.000000,,2013-09-26 02:12:00,
2013-09-25 20:21:00,57.0,25.0,-100.00,South,179,15.0,29.0,29,0.00,,,0.00,4.000000,,2013-09-26 02:21:00,
2013-09-25 20:32:00,57.0,25.0,-100.00,South,179,15.0,29.0,29,0.00,,,0.00,4.000000,,2013-09-26 02:32:00,
2013-09-25 20:34:00,56.0,23.0,-100.00,East,97,5.0,32.0,28,0.00,,,0.00,0.000000,,2013-09-26 02:34:00,
2013-09-25 21:12:00,56.0,23.0,-100.00,East,97,5.0,32.0,28,0.00,,,0.00,0.000000,,2013-09-26 03:12:00,
2013-09-25 21:22:00,56.0,23.0,-100.00,East,97,5.0,32.0,28,0.00,,,0.00,0.000000,,2013-09-26 03:22:00,
2013-09-25 21:34:00,56.0,23.0,-100.00,South,184,9.0,34.0,28,0.00,,,0.00,0.000000,,2013-09-26 03:34:00,
2013-09-25 21:55:00,56.0,23.0,-100.00,South,184,9.0,34.0,28,0.00,,,0.00,0.000000,,2013-09-26 03:55:00,
2013-09-25 22:04:00,56.0,23.0,-100.00,South,184,9.0,34.0,28,0.00,,,0.00,0.000000,,2013-09-26 04:04:00,
2013-09-25 22:14:00,56.0,23.0,-100.00,South,184,9.0,34.0,28,0.00,,,0.00,0.000000,,2013-09-26 04:14:00,
2013-09-25 22:24:00,56.0,23.0,-100.00,South,184,9.0,34.0,28,0.00,,,0.00,0.000000,,2013-09-26 04:24:00,
2013-09-25 22:34:00,55.0,22.0,-100.00,SSW,209,10.0,31.0,27,0.00,,,0.00,0.000000,,2013-09-26 04:34:00,
2013-09-25 22:54:00,55.0,22.0,-100.00,SSW,209,10.0,31.0,27,0.00,,,0.00,0.000000,,2013-09-26 04:54:00,
2013-09-25 23:03:00,55.0,22.0,-100.00,SSW,209,10.0,31.0,27,0.00,,,0.00,0.000000,,2013-09-26 05:03:00,
2013-09-25 23:12:00,55.0,22.0,-100.00,SSW,209,10.0,31.0,27,0.00,,,0.00,0.000000,,2013-09-26 05:12:00,
2013-09-25 23:23:00,55.0,22.0,-100.00,SSW,209,10.0,31.0,27,0.00,,,0.00,0.000000,,2013-09-26 05:23:00,
2013-09-25 23:52:00,54.0,22.0,-100.00,SW,217,12.0,34.0,29,0.00,,,0.00,0.000000,,2013-09-26 05:52:00,